Time;durP1;ratioP1;P1;durP2;ratioP2;P2;SDS_P1;SDS_P2;PMS_P1;PMS_P2;Temp;Humidity;BMP_temperature;BMP_pressure;BME280_temperature;BME280_humidity;BME280_pressure;Samples;Min_cycle;Max_cycle;Signal;HPM_P1;HPM_P2
2022/03/20 00:00:35;;;;;;;24.80;16.83;;;2.90;96.70;;;;;;5054369;28;20200;-90
2022/03/20 00:03:06;;;;;;;19.85;16.23;;;3.30;94.70;;;;;;5055717;28;20196;-90
2022/03/20 00:05:38;;;;;;;20.30;16.48;;;;;;;;;;5074078;28;20208;-90
2022/03/20 00:08:08;;;;;;;21.30;17.08;;;3.30;96.60;;;;;;5073613;28;20218;-90
2022/03/20 00:10:36;;;;;;;23.90;17.08;;;3.40;93.40;;;;;;5073632;28;20215;-90
2022/03/20 00:13:08;;;;;;;20.20;16.13;;;3.10;91.90;;;;;;5073411;28;20297;-89
2022/03/20 00:15:35;;;;;;;25.10;16.25;;;4.00;78.00;;;;;;5073036;28;20210;-89
2022/03/20 00:18:02;;;;;;;21.92;17.23;;;3.10;91.90;;;;;;5072743;28;20211;-90
2022/03/20 00:20:30;;;;;;;27.08;17.75;;;;;;;;;;5073393;28;20260;-90
2022/03/20 00:22:57;;;;;;;23.75;15.93;;;3.30;95.50;;;;;;5073283;28;20210;-90
2022/03/20 00:25:24;;;;;;;19.75;15.85;;;;;;;;;;5073892;28;20294;-90
2022/03/20 00:27:51;;;;;;;21.73;15.75;;;;;;;;;;5073648;28;20286;-89
2022/03/20 00:30:20;;;;;;;24.42;16.75;;;3.30;91.80;;;;;;5073734;28;20488;-90
2022/03/20 00:32:46;;;;;;;19.95;15.48;;;3.50;92.80;;;;;;5073309;28;20207;-90
2022/03/20 00:35:13;;;;;;;19.25;15.27;;;3.10;78.90;;;;;;5073591;28;20211;-89
2022/03/20 00:37:40;;;;;;;21.38;16.90;;;;;;;;;;5073088;28;20301;-90
2022/03/20 00:40:09;;;;;;;24.65;16.85;;;3.40;79.60;;;;;;5068846;28;20257;-90
2022/03/20 00:42:36;;;;;;;24.60;16.30;;;2.40;80.50;;;;;;5053288;28;20257;-89
2022/03/20 00:45:04;;;;;;;19.02;14.95;;;;;;;;;;5052975;28;20298;-89
2022/03/20 00:47:33;;;;;;;22.05;15.65;;;;;;;;;;5052820;28;20209;-90
2022/03/20 00:50:00;;;;;;;21.83;16.08;;;4.80;78.10;;;;;;5053096;28;20192;-89
2022/03/20 00:52:27;;;;;;;17.77;15.05;;;3.00;94.10;;;;;;5053008;28;20732;-90
2022/03/20 00:54:54;;;;;;;18.00;15.07;;;;;;;;;;5053460;28;20219;-90
2022/03/20 00:57:21;;;;;;;20.15;15.20;;;3.10;91.30;;;;;;5052604;28;20618;-89
2022/03/20 00:59:48;;;;;;;21.80;16.70;;;3.90;95.80;;;;;;5052794;28;20235;-89
2022/03/20 01:02:15;;;;;;;20.90;15.90;;;3.10;75.90;;;;;;5053020;28;20204;-89
2022/03/20 01:04:44;;;;;;;21.45;16.13;;;;;;;;;;5067525;28;20275;-89
2022/03/20 01:07:11;;;;;;;26.38;17.40;;;;;;;;;;5072655;28;20187;-89
2022/03/20 01:09:39;;;;;;;20.73;14.20;;;3.20;91.70;;;;;;5072420;28;20195;-90
2022/03/20 01:12:08;;;;;;;19.38;15.75;;;3.10;76.00;;;;;;5072389;28;20293;-89
2022/03/20 01:14:36;;;;;;;21.48;15.82;;;3.30;91.90;;;;;;5072031;28;20658;-90
2022/03/20 01:17:05;;;;;;;21.23;15.73;;;3.10;77.50;;;;;;5072142;28;20682;-89
2022/03/20 01:19:32;;;;;;;21.85;16.05;;;3.20;76.30;;;;;;5072339;28;20205;-90
2022/03/20 01:22:02;;;;;;;22.40;16.17;;;3.70;95.50;;;;;;5071904;28;20195;-89
2022/03/20 01:24:29;;;;;;;23.15;17.27;;;3.20;77.40;;;;;;5072212;28;20200;-90
2022/03/20 01:26:57;;;;;;;20.20;16.27;;;3.10;95.40;;;;;;5072404;28;20287;-90
2022/03/20 01:29:27;;;;;;;23.58;16.33;;;;;;;;;;5072374;28;20220;-90
2022/03/20 01:31:55;;;;;;;20.42;15.63;;;3.00;92.40;;;;;;5072385;28;20257;-89
2022/03/20 01:34:22;;;;;;;17.25;14.98;;;3.00;97.00;;;;;;5072043;28;20593;-89
2022/03/20 01:36:50;;;;;;;27.35;17.40;;;;;;;;;;5072131;28;20639;-89
2022/03/20 01:39:18;;;;;;;24.30;17.20;;;3.10;92.70;;;;;;5071833;28;20210;-90
2022/03/20 01:41:47;;;;;;;21.63;16.27;;;2.70;80.40;;;;;;5054244;28;20258;-89
2022/03/20 01:44:14;;;;;;;20.75;16.30;;;2.90;95.20;;;;;;5051863;28;20245;-90
2022/03/20 01:46:41;;;;;;;22.67;17.33;;;2.80;96.00;;;;;;5051866;28;20203;-90
2022/03/20 01:49:08;;;;;;;27.08;17.90;;;2.90;93.80;;;;;;5052041;28;20257;-90
2022/03/20 01:54:22;;;;;;;25.67;17.70;;;;;;;;;;5051508;28;20200;-90
2022/03/20 01:56:49;;;;;;;21.52;17.30;;;3.10;78.20;;;;;;5051526;28;20199;-90
2022/03/20 01:59:17;;;;;;;27.80;18.08;;;3.10;77.50;;;;;;5052477;28;20544;-89
2022/03/20 02:01:45;;;;;;;28.02;17.35;;;;;;;;;;5053386;28;20252;-89
2022/03/20 02:04:14;;;;;;;21.60;15.95;;;2.80;95.90;;;;;;5065843;28;20230;-89
2022/03/20 02:06:41;;;;;;;25.25;18.52;;;2.60;96.10;;;;;;5073249;28;20210;-90
2022/03/20 02:09:09;;;;;;;20.50;16.33;;;2.90;78.90;;;;;;5071399;28;20727;-89
2022/03/20 02:11:39;;;;;;;20.40;16.90;;;;;;;;;;5071646;28;20505;-90
2022/03/20 02:14:07;;;;;;;19.85;16.70;;;;;;;;;;5071538;28;20245;-89
2022/03/20 02:16:37;;;;;;;26.35;16.45;;;;;;;;;;5071772;28;20203;-88
2022/03/20 02:19:07;;;;;;;21.60;16.38;;;2.70;92.60;;;;;;5071277;28;20322;-90
2022/03/20 02:21:40;;;;;;;25.83;16.35;;;2.80;95.70;;;;;;5071721;28;20290;-90
2022/03/20 02:24:38;;;;;;;21.38;17.27;;;2.80;92.20;;;;;;5071472;28;20290;-90
2022/03/20 02:27:08;;;;;;;20.00;14.65;;;3.20;93.10;;;;;;5071182;28;20606;-90
2022/03/20 02:29:35;;;;;;;20.40;16.25;;;2.90;93.90;;;;;;5071495;28;20552;-89
2022/03/20 02:32:05;;;;;;;21.08;15.60;;;3.00;96.20;;;;;;5071273;28;20286;-90
2022/03/20 02:34:32;;;;;;;20.95;14.52;;;2.90;79.80;;;;;;5074505;28;20201;-90
2022/03/20 02:37:02;;;;;;;23.38;15.63;;;;;;;;;;5075292;28;20570;-89
2022/03/20 02:39:30;;;;;;;20.90;16.88;;;3.00;78.90;;;;;;5075572;28;20199;-90
2022/03/20 02:41:58;;;;;;;19.70;14.52;;;;;;;;;;5055572;28;20200;-89
2022/03/20 02:44:55;;;;;;;23.90;16.73;;;3.00;93.50;;;;;;5055329;28;20196;-89
2022/03/20 02:47:24;;;;;;;20.13;16.17;;;2.90;79.50;;;;;;5053702;28;20245;-90
2022/03/20 02:49:56;;;;;;;21.98;16.45;;;3.60;96.40;;;;;;5055264;28;20301;-89
2022/03/20 02:52:29;;;;;;;21.67;16.35;;;2.70;95.70;;;;;;5054559;28;20377;-89
2022/03/20 02:55:00;;;;;;;21.35;16.60;;;3.10;96.70;;;;;;5055051;28;20196;-89
2022/03/20 02:57:28;;;;;;;23.05;16.55;;;;;;;;;;5054639;28;20269;-90
2022/03/20 03:00:00;;;;;;;23.90;18.08;;;;;;;;;;5055330;28;20247;-89
2022/03/20 03:02:30;;;;;;;25.85;16.67;;;;;;;;;;5055104;28;20200;-89
2022/03/20 03:04:59;;;;;;;28.60;18.50;;;;;;;;;;5073054;28;20638;-90
2022/03/20 03:07:27;;;;;;;22.60;15.93;;;;;;;;;;5074605;28;20654;-90
2022/03/20 03:12:39;;;;;;;22.40;17.08;;;;;;;;;;5074298;28;20286;-90
2022/03/20 03:15:19;;;;;;;23.10;17.00;;;3.30;93.60;;;;;;5074171;28;20223;-88
2022/03/20 03:17:49;;;;;;;21.50;15.77;;;3.30;92.70;;;;;;5073649;28;20218;-90
2022/03/20 03:20:19;;;;;;;19.00;14.48;;;;;;;;;;5074094;28;20203;-89
2022/03/20 03:22:48;;;;;;;23.45;17.42;;;;;;;;;;5074082;28;20286;-90
2022/03/20 03:25:15;;;;;;;24.13;18.17;;;;;;;;;;5074655;28;20228;-90
2022/03/20 03:27:42;;;;;;;20.90;15.52;;;3.50;91.30;;;;;;5074177;28;20187;-90
2022/03/20 03:30:12;;;;;;;23.25;17.30;;;3.60;93.40;;;;;;5074717;28;20639;-90
2022/03/20 03:32:40;;;;;;;25.00;16.08;;;;;;;;;;5074885;28;20234;-89
2022/03/20 03:37:53;;;;;;;20.70;17.42;;;3.30;85.40;;;;;;5064689;28;20469;-88
2022/03/20 03:40:21;;;;;;;22.33;16.80;;;;;;;;;;5061939;28;20210;-88
2022/03/20 03:42:48;;;;;;;19.35;15.80;;;3.50;91.10;;;;;;5064053;28;20191;-88
2022/03/20 03:45:15;;;;;;;28.30;17.85;;;;;;;;;;5062305;28;20256;-87
2022/03/20 03:47:42;;;;;;;25.08;18.55;;;3.70;91.00;;;;;;5062541;28;20188;-88
2022/03/20 03:50:10;;;;;;;23.98;16.88;;;3.70;74.40;;;;;;5061081;28;20262;-88
2022/03/20 03:52:37;;;;;;;24.48;17.27;;;3.60;72.90;;;;;;5062355;28;20298;-87
2022/03/20 03:55:07;;;;;;;24.13;16.23;;;3.70;90.00;;;;;;5062267;28;20207;-88
2022/03/20 03:57:34;;;;;;;22.85;15.70;;;;;;;;;;5062105;28;20240;-87
2022/03/20 04:00:01;;;;;;;22.55;16.83;;;3.80;75.40;;;;;;5062236;28;20551;-88
2022/03/20 04:02:29;;;;;;;19.85;15.57;;;;;;;;;;5063946;28;20253;-88
2022/03/20 04:04:56;;;;;;;23.15;16.27;;;3.90;82.90;;;;;;5060921;28;20282;-88
2022/03/20 04:07:22;;;;;;;23.48;17.27;;;3.90;87.20;;;;;;5062610;28;20662;-87
2022/03/20 04:09:50;;;;;;;25.90;18.42;;;;;;;;;;5053078;28;20196;-87
2022/03/20 04:12:18;;;;;;;29.00;17.92;;;3.80;85.50;;;;;;5053473;28;20714;-88
2022/03/20 04:14:45;;;;;;;21.92;16.85;;;3.80;86.10;;;;;;5053400;28;20262;-88
2022/03/20 04:17:12;;;;;;;24.88;17.95;;;;;;;;;;5052287;28;20291;-88
2022/03/20 04:19:39;;;;;;;20.27;15.80;;;4.00;85.90;;;;;;5052773;28;20219;-87
2022/03/20 04:22:07;;;;;;;21.23;16.60;;;;;;;;;;5053228;28;20610;-88
2022/03/20 04:24:36;;;;;;;23.65;17.35;;;3.40;91.90;;;;;;5053067;28;20200;-89
2022/03/20 04:27:03;;;;;;;23.70;17.95;;;;;;;;;;5052281;28;20567;-88
2022/03/20 04:29:33;;;;;;;20.35;15.90;;;;;;;;;;5052887;28;20737;-88
2022/03/20 04:32:00;;;;;;;25.23;18.02;;;;;;;;;;5052837;28;20235;-88
2022/03/20 04:34:27;;;;;;;20.35;17.83;;;3.80;92.10;;;;;;5053140;28;20211;-88
2022/03/20 04:36:56;;;;;;;23.55;17.33;;;3.30;73.50;;;;;;5052700;28;20220;-88
2022/03/20 04:39:23;;;;;;;22.40;16.42;;;4.10;86.30;;;;;;5052512;28;20588;-89
2022/03/20 04:41:50;;;;;;;19.65;16.27;;;4.00;92.50;;;;;;5071505;28;20223;-87
2022/03/20 04:44:18;;;;;;;24.83;16.77;;;4.10;92.70;;;;;;5072738;28;20252;-88
2022/03/20 04:46:47;;;;;;;22.52;17.50;;;4.10;86.60;;;;;;5071794;28;20206;-88
2022/03/20 05:00:12;;;;;;;22.05;17.92;;;4.10;92.00;;;;;;5072392;28;20602;-88
2022/03/20 05:02:40;;;;;;;26.02;18.00;;;4.30;86.00;;;;;;5072448;28;20211;-89
2022/03/20 05:05:08;;;;;;;27.20;18.80;;;4.20;80.60;;;;;;5052776;28;20227;-88
2022/03/20 05:07:39;;;;;;;22.52;16.00;;;4.10;72.30;;;;;;5051616;28;20298;-89
2022/03/20 05:15:45;;;;;;;27.08;18.85;;;4.10;90.90;;;;;;5052286;28;20203;-87
2022/03/20 05:18:14;;;;;;;22.25;16.42;;;;;;;;;;5051022;28;20219;-89
2022/03/20 05:20:44;;;;;;;25.40;17.65;;;4.30;70.20;;;;;;5052099;28;20269;-88
2022/03/20 05:23:12;;;;;;;27.58;18.85;;;4.30;92.10;;;;;;5052175;28;20211;-88
2022/03/20 05:25:39;;;;;;;25.25;17.98;;;4.50;86.10;;;;;;5052201;28;20243;-88
2022/03/20 05:28:06;;;;;;;29.27;17.98;;;4.30;71.30;;;;;;5051929;28;20610;-88
2022/03/20 05:30:33;;;;;;;27.42;17.33;;;;;;;;;;5052862;28;20250;-88
2022/03/20 05:33:03;;;;;;;22.58;18.25;;;4.10;90.60;;;;;;5054389;28;20282;-87
2022/03/20 05:35:35;;;;;;;24.80;17.95;;;4.50;82.40;;;;;;5053735;28;20216;-88
2022/03/20 05:38:02;;;;;;;27.48;19.98;;;;;;;;;;5051246;28;20446;-88
2022/03/20 05:40:29;;;;;;;24.20;19.20;;;;;;;;;;5059105;28;20290;-88
2022/03/20 05:42:56;;;;;;;29.40;20.77;;;4.70;91.40;;;;;;5071502;28;20264;-87
2022/03/20 05:45:23;;;;;;;25.60;18.20;;;;;;;;;;5071377;28;20670;-88
2022/03/20 05:47:50;;;;;;;32.80;20.90;;;4.30;85.50;;;;;;5071329;28;20203;-88
2022/03/20 05:50:17;;;;;;;23.52;17.55;;;4.40;86.50;;;;;;5071546;28;20196;-88
2022/03/20 05:52:45;;;;;;;29.38;20.90;;;4.70;92.50;;;;;;5071704;28;20503;-88
2022/03/20 05:55:12;;;;;;;26.13;19.25;;;4.40;91.20;;;;;;5070659;28;20268;-88
2022/03/20 06:00:25;;;;;;;26.70;19.92;;;4.70;91.30;;;;;;5071730;28;20679;-88
2022/03/20 06:02:53;;;;;;;24.95;18.20;;;;;;;;;;5070514;28;20264;-88
2022/03/20 06:05:21;;;;;;;26.95;19.17;;;4.90;86.90;;;;;;5051340;28;20665;-88
2022/03/20 06:07:51;;;;;;;26.58;19.98;;;4.80;91.30;;;;;;5050560;28;20207;-88
2022/03/20 06:10:19;;;;;;;25.30;19.50;;;4.70;93.30;;;;;;5051187;28;20211;-87
2022/03/20 06:12:47;;;;;;;28.40;21.55;;;4.70;87.50;;;;;;5051472;28;20196;-88
2022/03/20 06:15:14;;;;;;;25.02;18.73;;;5.60;80.00;;;;;;5051419;28;20207;-88
2022/03/20 06:17:44;;;;;;;26.98;19.85;;;4.70;71.40;;;;;;5050758;28;20608;-88
2022/03/20 06:20:13;;;;;;;29.85;21.02;;;5.00;89.40;;;;;;5051118;28;20216;-88
2022/03/20 06:22:40;;;;;;;26.17;19.77;;;5.00;90.30;;;;;;5050940;28;20261;-88
2022/03/20 06:25:11;;;;;;;29.27;20.10;;;6.00;73.00;;;;;;5051083;28;20204;-87
2022/03/20 06:27:46;;;;;;;28.55;20.50;;;5.00;91.90;;;;;;5050834;28;20553;-88
2022/03/20 06:30:25;;;;;;;23.25;18.73;;;5.20;70.50;;;;;;5051487;28;20598;-87
2022/03/20 06:32:58;;;;;;;30.38;19.77;;;5.20;86.20;;;;;;5050843;28;20294;-88
2022/03/20 06:35:34;;;;;;;26.33;19.55;;;5.30;81.00;;;;;;5050802;28;20238;-87
2022/03/20 06:38:01;;;;;;;25.27;19.58;;;5.90;87.00;;;;;;5050429;28;20261;-88
2022/03/20 06:40:29;;;;;;;40.25;21.52;;;5.10;85.40;;;;;;5057888;28;20199;-88
2022/03/20 06:42:56;;;;;;;28.00;19.33;;;5.30;88.10;;;;;;5070770;28;20203;-88
2022/03/20 06:45:24;;;;;;;25.05;20.02;;;5.50;85.50;;;;;;5071152;28;20204;-88
2022/03/20 06:47:51;;;;;;;30.83;21.48;;;5.20;90.80;;;;;;5070025;28;20195;-89
2022/03/20 06:50:18;;;;;;;25.80;19.67;;;5.50;78.80;;;;;;5070781;28;20725;-87
2022/03/20 06:52:45;;;;;;;24.70;19.95;;;5.30;86.80;;;;;;5062099;28;20225;-88
2022/03/20 06:55:15;;;;;;;33.45;21.95;;;3.70;69.10;;;;;;5051066;28;20204;-88
2022/03/20 06:57:46;;;;;;;29.25;20.83;;;5.40;73.20;;;;;;5050838;28;20216;-88
2022/03/20 07:00:17;;;;;;;27.70;19.77;;;5.40;71.70;;;;;;5050324;28;20216;-87
2022/03/20 07:02:47;;;;;;;26.98;20.98;;;;;;;;;;5050700;28;20200;-87
2022/03/20 07:05:14;;;;;;;28.80;21.52;;;;;;;;;;5050469;28;20212;-88
2022/03/20 07:07:43;;;;;;;26.98;21.60;;;5.80;75.90;;;;;;5048648;28;20630;-87
2022/03/20 07:10:52;;;;;;;25.08;20.98;;;5.80;71.30;;;;;;5050426;28;20229;-87
2022/03/20 07:16:20;;;;;;;32.72;21.42;;;6.00;71.80;;;;;;5050334;28;20210;-87
2022/03/20 07:18:49;;;;;;;28.45;20.50;;;6.10;93.00;;;;;;5050369;28;20260;-88
2022/03/20 07:21:18;;;;;;;41.20;23.38;;;6.20;88.60;;;;;;5053977;28;20261;-88
2022/03/20 07:23:46;;;;;;;31.17;22.25;;;;;;;;;;5053930;28;20579;-87
2022/03/20 07:31:51;;;;;;;29.15;22.08;;;6.50;86.10;;;;;;5054243;28;20200;-88
2022/03/20 07:34:18;;;;;;;28.42;21.30;;;6.70;91.90;;;;;;5054128;28;20247;-87
2022/03/20 07:36:45;;;;;;;28.80;22.70;;;7.40;92.30;;;;;;5053240;28;20211;-88
2022/03/20 07:39:15;;;;;;;27.55;20.08;;;6.50;90.90;;;;;;5053594;28;20231;-87
2022/03/20 07:41:42;;;;;;;33.67;21.92;;;;;;;;;;5071865;28;20203;-88
2022/03/20 07:44:10;;;;;;;26.77;20.80;;;6.80;85.60;;;;;;5073581;28;20666;-87
2022/03/20 07:46:40;;;;;;;29.15;21.80;;;7.10;86.50;;;;;;5073508;28;20234;-86
2022/03/20 07:49:08;;;;;;;28.33;20.80;;;6.80;92.00;;;;;;5072060;28;20443;-87
2022/03/20 07:51:35;;;;;;;29.20;21.67;;;7.10;92.20;;;;;;5072823;28;20235;-88
2022/03/20 07:54:02;;;;;;;31.00;22.00;;;7.20;85.20;;;;;;5073412;28;20264;-87
2022/03/20 07:56:34;;;;;;;33.45;22.73;;;7.30;91.70;;;;;;5072962;28;20207;-87
2022/03/20 07:59:02;;;;;;;33.15;21.60;;;7.30;82.30;;;;;;5073328;28;20226;-87
2022/03/20 08:01:30;;;;;;;29.67;22.00;;;7.50;91.20;;;;;;5070231;28;20200;-87
2022/03/20 08:03:57;;;;;;;28.15;21.95;;;7.50;82.90;;;;;;5061456;28;20714;-88
2022/03/20 08:06:24;;;;;;;34.17;21.33;;;7.60;91.10;;;;;;5062420;28;20194;-89
2022/03/20 08:08:52;;;;;;;29.60;22.58;;;7.70;83.30;;;;;;5062899;28;20286;-88
2022/03/20 08:11:20;;;;;;;29.23;22.33;;;7.70;83.50;;;;;;5062746;28;20263;-88
2022/03/20 08:13:46;;;;;;;30.20;21.98;;;8.00;90.30;;;;;;5062420;28;20230;-88
2022/03/20 08:16:15;;;;;;;28.88;21.55;;;8.30;80.80;;;;;;5060978;28;20203;-89
2022/03/20 08:18:45;;;;;;;29.85;23.05;;;8.20;88.40;;;;;;5063054;28;20764;-89
2022/03/20 08:21:25;;;;;;;34.08;22.30;;;8.30;89.70;;;;;;5063029;28;20204;-90
2022/03/20 08:23:53;;;;;;;30.70;24.02;;;8.50;81.20;;;;;;5063045;28;20201;-86
2022/03/20 08:26:20;;;;;;;29.27;21.98;;;8.40;89.40;;;;;;5062142;28;20202;-89
2022/03/20 08:28:47;;;;;;;28.17;21.13;;;8.80;89.50;;;;;;5061948;28;20220;-89
2022/03/20 08:31:14;;;;;;;26.50;19.83;;;8.70;65.40;;;;;;5060561;28;20227;-87
2022/03/20 08:33:41;;;;;;;30.23;22.30;;;8.80;65.30;;;;;;5058179;28;20638;-88
2022/03/20 08:36:10;;;;;;;28.65;21.73;;;8.90;86.40;;;;;;5060697;28;20764;-89
2022/03/20 08:38:37;;;;;;;27.30;19.30;;;;;;;;;;5060559;28;20741;-87
2022/03/20 08:41:05;;;;;;;31.90;20.75;;;9.10;78.70;;;;;;5063623;28;20210;-89
2022/03/20 08:43:32;;;;;;;25.20;19.40;;;9.80;88.30;;;;;;5060741;28;20562;-88
2022/03/20 08:46:00;;;;;;;31.08;21.63;;;9.10;79.30;;;;;;5062832;28;20976;-88
2022/03/20 08:48:26;;;;;;;28.05;20.10;;;9.20;78.90;;;;;;5062259;28;20621;-88
2022/03/20 08:50:53;;;;;;;28.97;21.30;;;9.20;64.00;;;;;;5063081;28;20282;-89
2022/03/20 08:53:22;;;;;;;25.40;20.37;;;9.60;64.70;;;;;;5062751;28;20667;-87
2022/03/20 08:55:50;;;;;;;25.93;20.90;;;9.70;86.70;;;;;;5064583;28;20630;-88
2022/03/20 08:58:18;;;;;;;28.60;19.73;;;10.00;86.10;;;;;;5060013;28;21024;-87
2022/03/20 09:00:45;;;;;;;26.87;19.87;;;9.80;86.90;;;;;;5062828;28;20747;-87
2022/03/20 09:03:13;;;;;;;27.20;19.77;;;9.80;86.40;;;;;;5057657;28;20613;-88
2022/03/20 09:05:44;;;;;;;28.10;19.80;;;10.00;61.50;;;;;;5066631;28;20608;-87
2022/03/20 09:08:11;;;;;;;26.17;19.97;;;10.20;61.10;;;;;;5071855;28;20656;-89
2022/03/20 09:10:39;;;;;;;26.77;19.63;;;10.70;85.50;;;;;;5071764;28;20742;-89
2022/03/20 09:13:06;;;;;;;28.83;20.47;;;10.50;81.00;;;;;;5070564;28;20649;-89
2022/03/20 09:15:33;;;;;;;29.53;21.70;;;10.80;74.90;;;;;;5055671;28;20672;-89
2022/03/20 09:20:46;;;;;;;26.80;18.90;;;10.60;81.30;;;;;;5059278;28;20658;-89
2022/03/20 09:23:14;;;;;;;28.67;18.63;;;10.70;59.80;;;;;;5058925;28;20639;-88
2022/03/20 09:25:45;;;;;;;22.67;18.87;;;11.10;79.00;;;;;;5061390;28;20704;-90
2022/03/20 09:28:14;;;;;;;23.53;18.63;;;11.20;58.00;;;;;;5059616;28;20621;-87
2022/03/20 09:30:42;;;;;;;23.17;17.80;;;11.20;58.30;;;;;;5059881;28;20615;-89
2022/03/20 09:33:10;;;;;;;23.50;18.50;;;11.10;78.60;;;;;;5062115;28;20632;-88
2022/03/20 09:35:38;;;;;;;25.20;17.30;;;11.80;79.40;;;;;;5060851;28;20690;-87
2022/03/20 09:38:08;;;;;;;26.67;18.47;;;11.60;58.00;;;;;;5059833;28;21179;-87
2022/03/20 09:40:37;;;;;;;22.33;16.87;;;11.70;78.80;;;;;;5060286;28;20650;-88
2022/03/20 09:43:05;;;;;;;21.47;17.80;;;12.20;69.80;;;;;;5058243;28;20649;-87
2022/03/20 09:45:34;;;;;;;23.30;17.57;;;12.00;57.70;;;;;;5061422;28;20626;-88
2022/03/20 09:48:01;;;;;;;23.23;17.10;;;11.90;77.40;;;;;;5062704;28;20717;-88
2022/03/20 09:50:28;;;;;;;23.80;16.67;;;12.20;68.60;;;;;;5069795;28;20624;-88
2022/03/20 09:52:55;;;;;;;22.10;16.67;;;12.40;79.70;;;;;;5072127;28;20605;-89
2022/03/20 09:55:22;;;;;;;22.30;17.50;;;12.60;79.70;;;;;;5060508;28;20683;-88
2022/03/20 09:57:49;;;;;;;26.80;18.83;;;12.40;58.00;;;;;;5059492;28;20622;-88
2022/03/20 10:00:17;;;;;;;22.87;17.10;;;12.50;57.50;;;;;;5071634;28;20645;-88
2022/03/20 10:02:45;;;;;;;21.20;15.57;;;12.50;57.30;;;;;;5071622;28;20670;-88
2022/03/20 10:05:12;;;;;;;21.23;16.90;;;;;;;;;;5057864;28;20621;-90
2022/03/20 10:07:43;;;;;;;26.73;19.17;;;12.50;78.70;;;;;;5070957;28;20656;-89
2022/03/20 10:10:15;;;;;;;22.73;17.17;;;12.90;57.90;;;;;;5071784;28;20621;-89
2022/03/20 10:12:44;;;;;;;21.30;17.20;;;12.90;57.90;;;;;;5071218;28;20609;-89
2022/03/20 10:15:27;;;;;;;21.17;15.83;;;13.00;79.90;;;;;;5071543;28;20633;-89
2022/03/20 10:18:06;;;;;;;19.63;15.23;;;13.10;57.90;;;;;;5065298;28;21242;-90
2022/03/20 10:20:36;;;;;;;23.57;17.90;;;13.10;58.40;;;;;;5064394;28;20653;-90
2022/03/20 10:23:04;;;;;;;22.40;15.10;;;;;;;;;;5053634;28;20705;-90
2022/03/20 10:25:32;;;;;;;22.60;16.07;;;12.90;58.30;;;;;;5051194;28;20618;-90
2022/03/20 10:28:00;;;;;;;21.63;15.47;;;;;;;;;;5051073;28;20618;-91
2022/03/20 10:30:28;;;;;;;19.93;15.93;;;;;;;;;;5051405;28;20609;-89
2022/03/20 10:32:57;;;;;;;21.50;16.13;;;;;;;;;;5051234;28;20636;-91
2022/03/20 10:35:24;;;;;;;21.27;15.27;;;;;;;;;;5064080;28;20724;-89
2022/03/20 10:37:54;;;;;;;23.07;16.30;;;12.90;79.30;;;;;;5071186;28;20653;-89
2022/03/20 10:40:24;;;;;;;23.87;16.00;;;12.90;57.80;;;;;;5063465;28;20646;-89
2022/03/20 10:43:11;;;;;;;25.10;16.67;;;12.90;59.10;;;;;;5051414;28;20607;-89
2022/03/20 10:46:05;;;;;;;20.10;15.30;;;12.90;83.20;;;;;;5051267;28;20698;-89
2022/03/20 10:48:37;;;;;;;20.63;16.30;;;13.00;59.40;;;;;;5050656;28;21219;-89
2022/03/20 10:51:06;;;;;;;20.73;16.73;;;13.20;59.00;;;;;;5051033;28;20634;-88
2022/03/20 10:53:33;;;;;;;23.20;16.40;;;13.00;59.90;;;;;;5050885;28;20626;-89
2022/03/20 10:56:06;;;;;;;28.70;15.90;;;13.10;59.70;;;;;;5055011;28;20981;-89
2022/03/20 10:58:38;;;;;;;21.53;16.90;;;13.30;59.10;;;;;;5055060;28;20616;-88
2022/03/20 11:01:07;;;;;;;22.17;17.30;;;13.40;58.40;;;;;;5055580;28;20699;-90
2022/03/20 11:03:37;;;;;;;19.20;16.37;;;13.40;59.50;;;;;;5063306;28;20722;-88
2022/03/20 11:06:07;;;;;;;20.53;15.73;;;13.50;58.70;;;;;;5068517;28;20726;-87
2022/03/20 11:08:34;;;;;;;19.97;14.87;;;;;;;;;;5064998;28;20626;-87
2022/03/20 11:11:02;;;;;;;23.47;16.83;;;13.50;77.00;;;;;;5063645;28;20684;-87
2022/03/20 11:13:29;;;;;;;19.90;16.10;;;13.50;57.60;;;;;;5062772;28;20601;-87
2022/03/20 11:15:59;;;;;;;18.67;15.33;;;13.70;77.90;;;;;;5063184;28;20624;-88
2022/03/20 11:18:29;;;;;;;17.70;14.53;;;13.80;58.60;;;;;;5061866;28;20634;-89
2022/03/20 11:21:01;;;;;;;17.73;15.60;;;14.10;58.00;;;;;;5061322;28;21210;-91
2022/03/20 11:23:30;;;;;;;20.87;16.43;;;14.00;75.20;;;;;;5064189;28;20616;-89
2022/03/20 11:25:59;;;;;;;21.67;15.37;;;14.10;56.00;;;;;;5061870;28;20732;-89
2022/03/20 11:28:27;;;;;;;19.73;15.13;;;14.10;77.30;;;;;;5061573;28;21143;-88
2022/03/20 11:30:57;;;;;;;21.83;15.83;;;14.20;57.50;;;;;;5062042;28;20624;-88
2022/03/20 11:33:25;;;;;;;16.53;13.10;;;14.30;56.60;;;;;;5062740;28;20680;-89
2022/03/20 11:35:54;;;;;;;17.13;12.30;;;14.30;57.30;;;;;;5061595;28;21233;-88
2022/03/20 11:38:25;;;;;;;17.20;13.17;;;14.20;77.20;;;;;;5062253;28;20665;-89
2022/03/20 11:41:12;;;;;;;15.20;11.50;;;14.30;74.20;;;;;;5063021;28;20641;-89
2022/03/20 11:43:41;;;;;;;15.73;11.23;;;15.00;79.00;;;;;;5062053;28;21204;-88
2022/03/20 11:46:27;;;;;;;17.50;12.80;;;14.30;69.00;;;;;;5061282;28;20622;-88
2022/03/20 11:49:22;;;;;;;18.60;12.97;;;14.40;56.30;;;;;;5061769;28;20620;-90
2022/03/20 11:52:00;;;;;;;16.50;12.90;;;14.80;55.40;;;;;;5033022;28;20633;-90
2022/03/20 11:54:31;;;;;;;14.80;12.83;;;14.70;56.30;;;;;;5072980;28;21436;-89
2022/03/20 11:57:00;;;;;;;17.87;12.40;;;14.70;56.10;;;;;;5073818;28;20621;-88
2022/03/20 11:59:47;;;;;;;19.97;12.60;;;14.50;79.20;;;;;;5073356;28;20681;-88
2022/03/20 12:02:15;;;;;;;13.87;11.33;;;14.90;77.60;;;;;;5073164;28;20616;-87
2022/03/20 12:04:55;;;;;;;13.13;11.20;;;15.60;70.90;;;;;;5057478;28;20632;-86
2022/03/20 12:07:30;;;;;;;12.70;10.37;;;15.30;54.80;;;;;;5052846;28;20657;-88
2022/03/20 12:10:17;;;;;;;15.40;11.27;;;15.20;72.70;;;;;;5053313;28;21049;-87
2022/03/20 12:12:59;;;;;;;11.87;9.40;;;15.40;54.10;;;;;;5052470;28;21205;-87
2022/03/20 12:15:29;;;;;;;16.20;9.33;;;15.50;61.10;;;;;;5053217;28;21262;-87
2022/03/20 12:18:01;;;;;;;9.90;8.53;;;15.20;64.90;;;;;;5052913;28;21226;-88
2022/03/20 12:21:06;;;;;;;13.50;8.20;;;15.60;74.40;;;;;;5064971;28;21272;-87
2022/03/20 12:23:44;;;;;;;12.17;9.40;;;15.50;52.80;;;;;;5072937;28;20635;-89
2022/03/20 12:26:43;;;;;;;9.23;8.10;;;15.50;52.80;;;;;;5072894;28;21006;-89
2022/03/20 12:29:29;;;;;;;8.50;7.60;;;15.60;53.20;;;;;;5073177;28;20832;-90
2022/03/20 12:31:57;;;;;;;12.43;8.63;;;15.80;52.50;;;;;;5073203;28;20629;-89
2022/03/20 12:34:25;;;;;;;11.90;9.00;;;15.90;53.20;;;;;;5073099;28;20654;-90
2022/03/20 12:36:52;;;;;;;16.00;10.90;;;16.10;70.80;;;;;;5072041;28;20640;-87
2022/03/20 12:39:54;;;;;;;14.53;11.40;;;15.70;70.00;;;;;;5072804;28;20623;-88
2022/03/20 12:42:22;;;;;;;12.00;10.80;;;16.10;71.00;;;;;;5052968;28;20616;-87
2022/03/20 12:44:50;;;;;;;22.17;11.87;;;16.10;71.50;;;;;;5056054;28;20620;-88
2022/03/20 12:47:18;;;;;;;13.27;10.60;;;16.10;52.90;;;;;;5051719;28;20626;-87
2022/03/20 12:49:48;;;;;;;12.37;10.93;;;16.20;68.20;;;;;;5052984;28;20616;-87
2022/03/20 12:52:17;;;;;;;21.23;11.67;;;16.40;51.90;;;;;;5052175;28;21210;-88
2022/03/20 12:54:54;;;;;;;17.13;10.30;;;16.00;71.80;;;;;;5052764;28;21062;-87
2022/03/20 12:57:37;;;;;;;12.77;11.57;;;16.40;70.60;;;;;;5054428;28;20637;-88
2022/03/20 13:00:13;;;;;;;16.63;12.47;;;16.50;63.30;;;;;;5052622;28;20654;-88
2022/03/20 13:03:01;;;;;;;14.60;10.83;;;16.20;61.10;;;;;;5052198;28;20605;-88
2022/03/20 13:05:29;;;;;;;12.33;10.10;;;16.20;51.10;;;;;;5052946;28;20967;-88
2022/03/20 13:07:56;;;;;;;17.33;11.93;;;16.10;50.90;;;;;;5051772;28;20658;-88
2022/03/20 13:10:26;;;;;;;13.20;11.10;;;16.80;50.90;;;;;;5053122;28;20612;-88
2022/03/20 13:12:55;;;;;;;14.07;11.57;;;16.30;49.20;;;;;;5071490;28;20607;-88
2022/03/20 13:15:26;;;;;;;17.77;11.33;;;16.40;49.30;;;;;;5071841;28;20623;-87
2022/03/20 13:17:53;;;;;;;15.77;11.30;;;;;;;;;;5071068;28;20620;-87
2022/03/20 13:20:23;;;;;;;12.80;11.40;;;16.50;58.80;;;;;;5072375;28;20620;-88
2022/03/20 13:22:50;;;;;;;15.70;11.87;;;16.30;59.10;;;;;;5067733;28;20664;-87
2022/03/20 13:25:18;;;;;;;16.13;12.27;;;16.20;59.20;;;;;;5066338;28;20687;-88
2022/03/20 13:27:48;;;;;;;16.30;11.37;;;16.30;48.30;;;;;;5056512;28;20655;-89
2022/03/20 13:30:16;;;;;;;15.80;13.03;;;16.40;48.20;;;;;;5051524;28;20619;-88
2022/03/20 13:32:44;;;;;;;26.70;15.00;;;16.40;59.50;;;;;;5051763;28;20678;-88
2022/03/20 13:35:12;;;;;;;18.13;13.50;;;16.30;48.00;;;;;;5051652;28;20625;-88
2022/03/20 13:37:39;;;;;;;18.33;12.80;;;;;;;;;;5049786;28;20637;-87
2022/03/20 13:40:07;;;;;;;15.30;12.43;;;16.50;47.00;;;;;;5055126;28;21024;-89
2022/03/20 13:42:36;;;;;;;18.80;12.43;;;;;;;;;;5071686;28;20661;-87